Alabama, New York
Current Conditions -  °F | °C
As of 2:54 AM on Saturday 25 Oct 2014 (Local Time) from KBUF Reporting Station
Overcast Overcast  
Wind Chill: 51°   Ceiling: 6000
Heat Index: 51°   Visibility: 7mi
Dew Point: 47°   Wind: 5mph
Humidity: 86%   Direction: 200°SSW
Pressure: 29.89"   Gusts: NA
Location:  43.1°N, 78.39°W
Report Text: KBUF 250654Z 20004KT 7SM SCT042 OVC060 11/08 A2989 RMK AO2 SLP125 T01060083
Loading
Personal Weather Stations






























Interactive Weather Map
Tropical Storm Tracking
New forecast layout! Learn more

10-Day Weather Forecast

Advertisements
Track Severe Weather on mobile